createdAt,value
2023-05-18T00:00:26.064Z,4.8
2023-05-18T00:01:34.707Z,5.6
2023-05-18T00:02:42.511Z,5.3
2023-05-18T00:03:52.123Z,6.2
2023-05-18T00:05:00.748Z,11.2
2023-05-18T00:06:08.398Z,6.7
2023-05-18T00:07:18.050Z,2.4
2023-05-18T00:08:26.685Z,24.6
2023-05-18T00:09:34.426Z,4.6
2023-05-18T00:10:44.045Z,4.3
2023-05-18T00:11:52.792Z,3.8
2023-05-18T00:13:02.437Z,4.6
2023-05-18T00:14:12.078Z,6.6
2023-05-18T00:15:21.801Z,6.5
2023-05-18T00:16:31.504Z,6.1
2023-05-18T00:17:40.214Z,4.2
2023-05-18T00:18:49.931Z,6.8
2023-05-18T00:19:59.507Z,4.1
2023-05-18T00:21:08.184Z,4.5
2023-05-18T00:22:17.824Z,2.9
2023-05-18T00:23:26.473Z,2.1
2023-05-18T00:24:37.085Z,3.4
2023-05-18T00:25:45.882Z,2
2023-05-18T00:26:53.523Z,3.2
2023-05-18T00:28:03.175Z,2.5
2023-05-18T00:29:12.814Z,4.1
2023-05-18T00:30:20.474Z,5.7
2023-05-18T00:31:30.185Z,3.8
2023-05-18T00:32:39.895Z,4.8
2023-05-18T00:33:50.279Z,3.2
2023-05-18T00:34:58.943Z,3.1
2023-05-18T00:36:08.600Z,3.4
2023-05-18T00:37:18.248Z,5.6
2023-05-18T00:38:26.913Z,2.1
2023-05-18T00:39:34.657Z,4.4
2023-05-18T00:40:44.314Z,2.4
2023-05-18T00:41:53.997Z,4.5
2023-05-18T00:43:02.665Z,3.2
2023-05-18T00:44:12.385Z,3.6
2023-05-18T00:45:21.090Z,4.5
2023-05-18T00:46:30.734Z,2.6
2023-05-18T00:47:39.431Z,3.5
2023-05-18T00:48:47.092Z,3.6
2023-05-18T00:49:56.741Z,5.5
2023-05-18T00:51:05.421Z,5.2
2023-05-18T00:52:14.056Z,3.2
2023-05-18T00:53:23.718Z,2.9
2023-05-18T00:54:31.373Z,4.3
2023-05-18T00:55:41.058Z,3.7
2023-05-18T00:56:50.687Z,4.2
2023-05-18T00:57:58.348Z,5.1
2023-05-18T00:59:07.995Z,6.6
2023-05-18T01:00:16.627Z,6.5
2023-05-18T01:01:26.280Z,4.6
2023-05-18T01:02:34.965Z,4.3
2023-05-18T01:03:42.605Z,5.8
2023-05-18T01:04:52.282Z,6.2
2023-05-18T01:06:00.917Z,4.6
2023-05-18T01:07:10.571Z,8
2023-05-18T01:08:20.238Z,5
2023-05-18T01:09:29.887Z,3.4
2023-05-18T01:10:39.590Z,3.3
2023-05-18T01:11:49.269Z,3.6
2023-05-18T01:12:57.944Z,3.7
2023-05-18T01:14:07.625Z,4.9
2023-05-18T01:15:17.276Z,3.2
2023-05-18T01:16:24.977Z,2.7
2023-05-18T01:17:34.625Z,3.1
2023-05-18T01:18:43.246Z,2.1
2023-05-18T01:19:51.888Z,4
2023-05-18T01:21:01.531Z,3.2
2023-05-18T01:22:11.246Z,2.2
2023-05-18T01:23:20.870Z,2.1
2023-05-18T01:24:29.527Z,3
2023-05-18T01:25:37.153Z,3.7
2023-05-18T01:26:45.830Z,3.8
2023-05-18T01:27:54.469Z,3.8
2023-05-18T01:29:04.132Z,3.3
2023-05-18T01:30:12.791Z,2.7
2023-05-18T01:31:22.475Z,3.9
2023-05-18T01:32:32.161Z,3.1
2023-05-18T01:33:40.760Z,8.7
2023-05-18T01:34:48.421Z,5.7
2023-05-18T01:35:58.082Z,5.3
2023-05-18T01:37:07.725Z,4.2
2023-05-18T01:38:17.380Z,4.3
2023-05-18T01:39:27.022Z,4.5
2023-05-18T01:40:34.712Z,13.6
2023-05-18T01:41:44.393Z,6.8
2023-05-18T01:42:53.111Z,6.2
2023-05-18T01:44:01.751Z,3.8
2023-05-18T01:45:11.478Z,5.3
2023-05-18T01:46:20.279Z,6.7
2023-05-18T01:47:28.814Z,7
2023-05-18T01:48:37.438Z,6
2023-05-18T01:49:46.119Z,4.7
2023-05-18T01:50:55.762Z,4.1
2023-05-18T01:52:04.424Z,3.9
2023-05-18T01:53:13.082Z,3.9
2023-05-18T01:54:22.792Z,4.7
2023-05-18T01:55:31.638Z,2.7
2023-05-18T01:56:41.183Z,5.4
2023-05-18T01:57:49.820Z,5.4
2023-05-18T01:58:59.478Z,7.6
2023-05-18T02:00:08.133Z,13.5
2023-05-18T02:01:16.856Z,6.4
2023-05-18T02:02:25.601Z,4.8
2023-05-18T02:03:35.174Z,7.7
2023-05-18T02:04:43.743Z,11.4
2023-05-18T02:05:51.402Z,9.8
2023-05-18T02:07:01.048Z,8.5
2023-05-18T02:08:10.727Z,3.5
2023-05-18T02:09:21.463Z,8.4
2023-05-18T02:10:30.125Z,12.9
2023-05-18T02:11:38.803Z,4.7
2023-05-18T02:12:48.499Z,18.299999
2023-05-18T02:13:57.160Z,2.6
2023-05-18T02:15:05.817Z,4.4
2023-05-18T02:16:14.540Z,4.8
2023-05-18T02:17:24.157Z,4.6
2023-05-18T02:18:32.839Z,5.8
2023-05-18T02:19:40.448Z,3.6
2023-05-18T02:20:50.159Z,6.5
2023-05-18T02:21:59.797Z,4.2
2023-05-18T02:23:08.483Z,5.8
2023-05-18T02:24:18.163Z,6.6
2023-05-18T02:25:26.819Z,9.1
2023-05-18T02:26:35.486Z,3.3
2023-05-18T02:27:45.284Z,4.4
2023-05-18T02:28:53.011Z,4
2023-05-18T02:30:02.582Z,4.4
2023-05-18T02:31:11.218Z,3.2
2023-05-18T02:32:19.894Z,3.7
2023-05-18T02:33:29.529Z,3.4
2023-05-18T02:34:38.203Z,7.4
2023-05-18T02:35:47.858Z,3.1
2023-05-18T02:36:57.593Z,3.6
2023-05-18T02:38:07.290Z,3.1
2023-05-18T02:39:17.925Z,5.2
2023-05-18T02:40:26.554Z,4.7
2023-05-18T02:41:34.287Z,3.5
2023-05-18T02:42:43.958Z,4
2023-05-18T02:43:53.605Z,8.6
2023-05-18T02:45:02.260Z,6.5
2023-05-18T02:46:12.054Z,3.3
2023-05-18T02:47:19.601Z,8.6
2023-05-18T02:48:29.250Z,2.8
2023-05-18T02:49:38.958Z,2.2
2023-05-18T02:50:47.706Z,2.1
2023-05-18T02:51:57.308Z,2.8
2023-05-18T02:53:05.962Z,4.1
2023-05-18T02:54:14.614Z,2.1
2023-05-18T02:55:24.373Z,4.3
2023-05-18T02:56:33.014Z,3.6
2023-05-18T02:57:42.744Z,3
2023-05-18T02:58:52.375Z,7.8
2023-05-18T03:00:00.066Z,2.5
2023-05-18T03:01:09.791Z,2.6
2023-05-18T03:02:19.452Z,2.9
2023-05-18T03:03:29.130Z,4
2023-05-18T03:04:38.745Z,3.4
2023-05-18T03:05:47.459Z,3.4
2023-05-18T03:06:57.126Z,3.4
2023-05-18T03:08:06.806Z,3.3
2023-05-18T03:09:14.456Z,2.9
2023-05-18T03:10:24.450Z,2.7
2023-05-18T03:11:33.113Z,3.1
2023-05-18T03:12:41.811Z,4.4
2023-05-18T03:13:50.464Z,2.7
2023-05-18T03:14:59.122Z,4.2
2023-05-18T03:16:08.848Z,4.9
2023-05-18T03:17:18.487Z,6.1
2023-05-18T03:18:26.130Z,2.3
2023-05-18T03:19:36.834Z,4.7
2023-05-18T03:20:46.480Z,5.6
2023-05-18T03:21:56.130Z,4.4
2023-05-18T03:23:05.831Z,4
2023-05-18T03:24:14.486Z,4.3
2023-05-18T03:25:24.121Z,6.8
2023-05-18T03:26:32.799Z,4.3
2023-05-18T03:27:40.404Z,6
2023-05-18T03:28:50.130Z,5.2
2023-05-18T03:29:59.767Z,3.5
2023-05-18T03:31:09.508Z,4.1
2023-05-18T03:32:19.123Z,1.5
2023-05-18T03:33:26.816Z,2.3
2023-05-18T03:34:35.481Z,3.9
2023-05-18T03:35:47.061Z,5.5
2023-05-18T03:36:53.820Z,2.7
2023-05-18T03:38:03.543Z,3.5
2023-05-18T03:39:13.190Z,3.6
2023-05-18T03:40:21.804Z,5.6
2023-05-18T03:41:30.453Z,4
2023-05-18T03:42:40.141Z,2.6
2023-05-18T03:43:49.855Z,3
2023-05-18T03:44:58.459Z,4.3
2023-05-18T03:46:06.110Z,4.4
2023-05-18T03:47:15.897Z,3.6
2023-05-18T03:48:25.547Z,3.1
2023-05-18T03:49:34.299Z,8.9
2023-05-18T03:50:43.971Z,3.7
2023-05-18T03:51:52.705Z,9
2023-05-18T03:53:02.360Z,5.5
2023-05-18T03:54:11.027Z,3.7
2023-05-18T03:55:18.692Z,5.2
2023-05-18T03:56:28.423Z,3.9
2023-05-18T03:57:38.136Z,5.5
2023-05-18T03:58:46.835Z,4.3
2023-05-18T03:59:55.493Z,5.3
2023-05-18T04:01:05.175Z,8.1
2023-05-18T04:02:14.883Z,5.3
2023-05-18T04:03:23.617Z,6.2
2023-05-18T04:04:31.196Z,5.3
2023-05-18T04:05:40.871Z,3.2
2023-05-18T04:06:50.519Z,4.8
2023-05-18T04:07:59.166Z,5.2
2023-05-18T04:09:06.849Z,4
2023-05-18T04:10:16.531Z,3
2023-05-18T04:11:26.220Z,3.1
2023-05-18T04:12:35.845Z,5.1
2023-05-18T04:13:45.478Z,3.5
2023-05-18T04:14:55.182Z,3.9
2023-05-18T04:16:03.922Z,2.3
2023-05-18T04:17:13.520Z,3.1
2023-05-18T04:18:22.170Z,2.1
2023-05-18T04:19:31.931Z,3.4
2023-05-18T04:20:40.520Z,2.8
2023-05-18T04:21:49.208Z,2.5
2023-05-18T04:22:58.838Z,4.6
2023-05-18T04:24:08.551Z,2.2
2023-05-18T04:25:17.279Z,2.8
2023-05-18T04:26:26.904Z,2.9
2023-05-18T04:27:36.668Z,5.1
2023-05-18T04:28:45.216Z,3.7
2023-05-18T04:29:53.902Z,6.4
2023-05-18T04:31:02.588Z,4.6
2023-05-18T04:32:12.348Z,3.2
2023-05-18T04:33:21.868Z,3.7
2023-05-18T04:34:29.574Z,3.7
2023-05-18T04:35:39.196Z,7.4
2023-05-18T04:36:48.881Z,3.7
2023-05-18T04:37:57.528Z,3
2023-05-18T04:39:06.273Z,3.1
2023-05-18T04:40:14.346Z,3.2
2023-05-18T04:41:23.562Z,3.2
2023-05-18T04:42:32.237Z,2.5
2023-05-18T04:43:39.921Z,2.8
2023-05-18T04:44:49.564Z,2.9
2023-05-18T04:45:59.271Z,3.8
2023-05-18T04:47:08.924Z,2.9
2023-05-18T04:48:17.628Z,2.4
2023-05-18T04:49:25.247Z,3.9
2023-05-18T04:50:34.884Z,6.3
2023-05-18T04:51:43.515Z,4.3
2023-05-18T04:52:52.221Z,3.5
2023-05-18T04:54:00.852Z,4.4
2023-05-18T04:55:09.489Z,4.4
2023-05-18T04:56:19.152Z,4.5
2023-05-18T04:57:28.813Z,2.1
2023-05-18T04:58:37.475Z,2.3
2023-05-18T04:59:47.170Z,4.4
2023-05-18T05:00:56.832Z,2.9
2023-05-18T05:02:05.501Z,6.5
2023-05-18T05:03:15.201Z,5.8
2023-05-18T05:04:23.883Z,3.7
2023-05-18T05:05:32.647Z,4
2023-05-18T05:06:41.161Z,6.7
2023-05-18T05:07:49.834Z,5.4
2023-05-18T05:08:59.498Z,2.8
2023-05-18T05:10:09.121Z,5.8
2023-05-18T05:11:18.007Z,3.7
2023-05-18T05:12:27.755Z,5.1
2023-05-18T05:13:37.382Z,6
2023-05-18T05:14:47.085Z,3.3
2023-05-18T05:15:56.875Z,4.1
2023-05-18T05:17:05.558Z,4.3
2023-05-18T05:18:15.301Z,7.2
2023-05-18T05:19:23.907Z,5.8
2023-05-18T05:20:32.559Z,2.6
2023-05-18T05:21:42.245Z,2.6
2023-05-18T05:22:50.883Z,2
2023-05-18T05:24:00.519Z,4.2
2023-05-18T05:25:10.198Z,2.6
2023-05-18T05:26:17.834Z,4.4
2023-05-18T05:27:27.467Z,3.3
2023-05-18T05:28:36.109Z,3.3
2023-05-18T05:29:42.861Z,4.7
2023-05-18T05:30:52.540Z,2.2
2023-05-18T05:32:01.300Z,3.8
2023-05-18T05:33:10.925Z,2.2
2023-05-18T05:34:20.515Z,3.8
2023-05-18T05:35:31.171Z,2.2
2023-05-18T05:36:39.821Z,2.9
2023-05-18T05:37:48.466Z,2
2023-05-18T05:38:57.116Z,2.1
2023-05-18T05:40:06.844Z,2.6
2023-05-18T05:41:15.457Z,3.6
2023-05-18T05:42:24.166Z,2.9
2023-05-18T05:43:32.831Z,3.2
2023-05-18T05:44:40.540Z,3.2
2023-05-18T05:45:50.176Z,4.3
2023-05-18T05:46:58.835Z,2
2023-05-18T05:48:07.348Z,3.2
2023-05-18T05:49:17.932Z,3.9
2023-05-18T05:50:26.621Z,2.7
2023-05-18T05:51:35.297Z,5.6
2023-05-18T05:52:43.954Z,3.9
2023-05-18T05:53:51.692Z,2.7
2023-05-18T05:55:01.350Z,4.3
2023-05-18T05:56:11.038Z,3.6
2023-05-18T05:57:20.662Z,4
2023-05-18T05:58:30.379Z,2.7
2023-05-18T05:59:39.035Z,4.1
2023-05-18T06:00:47.708Z,3.5
2023-05-18T06:01:56.380Z,3.5
2023-05-18T06:03:05.094Z,3.6
2023-05-18T06:04:13.781Z,4.2
2023-05-18T06:05:23.392Z,3.5
2023-05-18T06:06:32.067Z,5.3
2023-05-18T06:07:41.753Z,6.1
2023-05-18T06:08:51.411Z,4.7
2023-05-18T06:10:00.131Z,3.9
2023-05-18T06:11:11.445Z,4.3
2023-05-18T06:12:19.393Z,3.3
2023-05-18T06:13:28.039Z,2.2
2023-05-18T06:14:36.828Z,3
2023-05-18T06:15:46.474Z,4.3
2023-05-18T06:16:56.174Z,2.1
2023-05-18T06:18:04.826Z,3.5
2023-05-18T06:19:14.509Z,1.8
2023-05-18T06:20:23.173Z,1.7
2023-05-18T06:21:32.841Z,4.1
2023-05-18T06:22:42.486Z,3.9
2023-05-18T06:23:51.180Z,3
2023-05-18T06:25:00.818Z,5
2023-05-18T06:26:09.481Z,2.4
2023-05-18T06:27:18.115Z,21.6
2023-05-18T06:28:27.762Z,294.6
2023-05-18T06:29:37.408Z,606
2023-05-18T06:30:46.081Z,7
2023-05-18T06:31:55.814Z,4
2023-05-18T06:33:04.605Z,4.7
2023-05-18T06:34:14.223Z,6.8
2023-05-18T06:35:22.890Z,6.2
2023-05-18T06:36:30.582Z,223.5
2023-05-18T06:37:40.207Z,165.8
2023-05-18T06:38:48.838Z,6.6
2023-05-18T06:39:57.485Z,5.2
2023-05-18T06:41:07.154Z,4.7
2023-05-18T06:42:16.822Z,223.39999
2023-05-18T06:43:26.501Z,487.1
2023-05-18T06:44:35.186Z,316.20001
2023-05-18T06:45:43.858Z,22.5
2023-05-18T06:46:53.548Z,142.89999
2023-05-18T06:48:03.204Z,402.89999
2023-05-18T06:49:11.845Z,227
2023-05-18T06:50:21.713Z,114.4
2023-05-18T06:51:31.353Z,404.20001
2023-05-18T06:52:41.046Z,635.59997
2023-05-18T06:53:50.671Z,321.29998
2023-05-18T06:54:58.368Z,562.70001
2023-05-18T06:56:08.019Z,453.5
2023-05-18T06:57:17.745Z,382.79998
2023-05-18T06:58:26.449Z,552
2023-05-18T06:59:35.123Z,212.19999
2023-05-18T07:00:42.757Z,27
2023-05-18T07:01:52.464Z,260.29998
2023-05-18T07:03:01.155Z,393.29998
2023-05-18T07:04:09.817Z,186.89999
2023-05-18T07:05:19.399Z,65.900002
2023-05-18T07:06:28.047Z,14
2023-05-18T07:07:37.914Z,76.800003
2023-05-18T07:08:47.559Z,129.89999
2023-05-18T07:09:56.233Z,20.9
2023-05-18T07:11:05.940Z,6.2
2023-05-18T07:12:15.598Z,5.1
2023-05-18T07:13:25.277Z,4.2
2023-05-18T07:14:35.198Z,3.8
2023-05-18T07:15:43.928Z,5.4
2023-05-18T07:16:52.674Z,2.9
2023-05-18T07:18:01.668Z,1.1
2023-05-18T07:19:10.329Z,5.7
2023-05-18T07:20:19.946Z,148.1
2023-05-18T07:21:30.600Z,190.19999
2023-05-18T07:22:39.308Z,74.599998
2023-05-18T07:23:48.981Z,165.1
2023-05-18T07:24:57.647Z,48.099998
2023-05-18T07:26:06.260Z,31
2023-05-18T07:27:14.925Z,10
2023-05-18T07:28:23.628Z,1059.5999
2023-05-18T07:29:33.352Z,12
2023-05-18T07:30:41.999Z,142.5
2023-05-18T07:31:50.679Z,2.9
2023-05-18T07:33:00.338Z,2
2023-05-18T07:34:10.948Z,4.5
2023-05-18T07:35:19.625Z,5
2023-05-18T07:36:29.289Z,6.1
2023-05-18T07:37:37.048Z,3.8
2023-05-18T07:38:46.704Z,472.6
2023-05-18T07:39:56.407Z,493.70001
2023-05-18T07:41:05.109Z,12.7
2023-05-18T07:42:13.751Z,6.5
2023-05-18T07:43:22.405Z,400.20001
2023-05-18T07:44:32.078Z,10.9
2023-05-18T07:45:41.721Z,3.4
2023-05-18T07:46:50.468Z,2.6
2023-05-18T07:48:00.242Z,2.7
2023-05-18T07:49:08.784Z,2.8
2023-05-18T07:50:16.442Z,1.2
2023-05-18T07:51:26.117Z,3.4
2023-05-18T07:52:34.814Z,3.5
2023-05-18T07:53:43.460Z,5.7
2023-05-18T07:54:52.108Z,136
2023-05-18T07:55:59.792Z,338.79998
2023-05-18T07:57:09.496Z,1.8
2023-05-18T07:58:19.153Z,578.29998
2023-05-18T07:59:28.795Z,1742.9
2023-05-18T08:00:38.484Z,915.40002
2023-05-18T08:01:48.227Z,544.09997
2023-05-18T08:02:57.926Z,437.29998
2023-05-18T08:04:07.571Z,530.59997
2023-05-18T08:05:16.152Z,334.1
2023-05-18T08:06:24.795Z,632
2023-05-18T08:07:34.447Z,40.299999
2023-05-18T08:08:42.086Z,30.4
2023-05-18T08:09:51.770Z,16.5
2023-05-18T08:11:00.409Z,1.4
2023-05-18T08:12:09.057Z,289
2023-05-18T08:13:18.745Z,709.5
2023-05-18T08:14:27.421Z,80
2023-05-18T08:15:37.066Z,5.7
2023-05-18T08:16:45.761Z,2
2023-05-18T08:17:54.442Z,0.3
2023-05-18T08:19:04.127Z,33.900002
2023-05-18T08:20:12.781Z,6.5
2023-05-18T08:21:21.463Z,4.2
2023-05-18T08:22:31.085Z,3.1
2023-05-18T08:23:39.737Z,2.3
2023-05-18T08:24:48.437Z,2.2
2023-05-18T08:25:58.061Z,3.5
2023-05-18T08:27:07.715Z,1.6
2023-05-18T08:28:17.448Z,5
2023-05-18T08:29:26.158Z,1.8
2023-05-18T08:30:32.741Z,4.3
2023-05-18T08:31:42.401Z,2.4
2023-05-18T08:32:51.036Z,14.9
2023-05-18T08:34:00.722Z,16.5
2023-05-18T08:35:10.366Z,146.6
2023-05-18T08:36:19.029Z,2.1
2023-05-18T08:37:28.677Z,2.5
2023-05-18T08:38:37.421Z,1.3
2023-05-18T08:39:45.062Z,3.2
2023-05-18T08:40:54.710Z,4.5
2023-05-18T08:42:04.405Z,3.6
2023-05-18T08:43:14.115Z,3.8
2023-05-18T08:44:23.818Z,4.8
2023-05-18T08:45:32.706Z,9.1
2023-05-18T08:46:42.145Z,3.5
2023-05-18T08:47:50.888Z,5
2023-05-18T08:49:00.495Z,2.3
2023-05-18T08:50:09.134Z,3.9
2023-05-18T08:51:18.842Z,5.1
2023-05-18T08:52:28.592Z,3.1
2023-05-18T08:53:37.309Z,1.8
2023-05-18T08:54:45.934Z,2.7
2023-05-18T08:55:54.593Z,1.3
2023-05-18T08:57:02.315Z,5.5
2023-05-18T08:58:11.966Z,197.1
2023-05-18T08:59:20.634Z,57
2023-05-18T09:00:29.559Z,8.4
2023-05-18T09:01:38.989Z,16.4
2023-05-18T09:02:47.642Z,1.8
2023-05-18T09:03:56.225Z,10.5
2023-05-18T09:05:05.937Z,2.2
2023-05-18T09:06:15.567Z,24.1
2023-05-18T09:07:25.248Z,2.4
2023-05-18T09:08:33.898Z,5.2
2023-05-18T09:09:43.554Z,2.6
2023-05-18T09:10:53.311Z,63.299999
2023-05-18T09:12:01.892Z,18.299999
2023-05-18T09:13:10.516Z,17.700001
2023-05-18T09:14:20.180Z,60.5
2023-05-18T09:15:29.151Z,7.2
2023-05-18T09:16:38.720Z,10.3
2023-05-18T09:17:48.446Z,190.69999
2023-05-18T09:18:55.975Z,19.6
2023-05-18T09:20:05.663Z,4.9
2023-05-18T09:21:14.296Z,2.3
2023-05-18T09:22:22.969Z,4.2
2023-05-18T09:23:31.620Z,4.2
2023-05-18T09:24:39.290Z,6.2
2023-05-18T09:25:48.963Z,4.2
2023-05-18T09:26:57.625Z,7.1
2023-05-18T09:28:06.287Z,15
2023-05-18T09:29:14.964Z,194
2023-05-18T09:30:24.671Z,4.3
2023-05-18T09:31:34.377Z,4.3
2023-05-18T09:32:43.988Z,5.4
2023-05-18T09:33:52.721Z,2.5
2023-05-18T09:35:02.302Z,3.2
2023-05-18T09:36:10.947Z,7
2023-05-18T09:37:19.592Z,2.2
2023-05-18T09:38:29.326Z,4.1
2023-05-18T09:39:38.059Z,3.3
2023-05-18T09:40:46.694Z,1.5
2023-05-18T09:41:55.344Z,4.1
2023-05-18T09:43:04.071Z,3.3
2023-05-18T09:44:14.427Z,5.2
2023-05-18T09:45:23.103Z,7
2023-05-18T09:46:30.809Z,2.4
2023-05-18T09:47:40.431Z,4
2023-05-18T09:48:49.148Z,3.4
2023-05-18T09:49:58.826Z,5
2023-05-18T09:51:08.511Z,2.4
2023-05-18T09:52:16.158Z,3
2023-05-18T09:53:25.877Z,3.2
2023-05-18T09:54:34.550Z,3.5
2023-05-18T09:55:44.196Z,4.5
2023-05-18T09:57:08.781Z,3
2023-05-18T09:58:03.558Z,26.9
2023-05-18T09:59:13.219Z,4.1
2023-05-18T10:00:23.628Z,121.09999
2023-05-18T10:01:30.568Z,2.5
2023-05-18T10:02:40.298Z,3.9
2023-05-18T10:03:50.129Z,1.6
2023-05-18T10:04:57.550Z,2.8
2023-05-18T10:06:07.254Z,3.3
2023-05-18T10:07:17.020Z,4.5
2023-05-18T10:08:26.739Z,3
2023-05-18T10:09:36.452Z,1.9
2023-05-18T10:10:44.086Z,2.9
2023-05-18T10:11:53.784Z,3.8
2023-05-18T10:13:02.475Z,5.2
2023-05-18T10:14:11.112Z,2.1
2023-05-18T10:15:20.796Z,3.3
2023-05-18T10:16:29.484Z,3.4
2023-05-18T10:17:38.255Z,431
2023-05-18T10:18:47.862Z,144.1
2023-05-18T10:19:56.444Z,6.7
2023-05-18T10:21:06.181Z,52.099998
2023-05-18T10:22:15.102Z,3.3
2023-05-18T10:23:22.750Z,8.6
2023-05-18T10:24:32.455Z,4.8
2023-05-18T10:25:41.130Z,4.3
2023-05-18T10:26:52.736Z,5
2023-05-18T10:28:00.428Z,18.799999
2023-05-18T10:29:09.112Z,18.1
2023-05-18T10:30:18.843Z,3.9
2023-05-18T10:31:28.438Z,26.5
2023-05-18T10:32:36.094Z,61
2023-05-18T10:33:45.715Z,13.1
2023-05-18T10:34:54.467Z,4.2
2023-05-18T10:36:04.232Z,2.2
2023-05-18T10:37:13.861Z,4.9
2023-05-18T10:38:23.585Z,8.4
2023-05-18T10:39:33.191Z,42.799999
2023-05-18T10:40:41.885Z,74.800003
2023-05-18T10:41:50.787Z,4.5
2023-05-18T10:43:00.440Z,116
2023-05-18T10:44:10.184Z,2.6
2023-05-18T10:45:19.902Z,50.5
2023-05-18T10:46:28.619Z,4.9
2023-05-18T10:47:38.378Z,4.8
2023-05-18T10:48:47.956Z,308.70001
2023-05-18T10:49:55.642Z,32.5
2023-05-18T10:51:05.267Z,33.099998
2023-05-18T10:52:14.921Z,263.39999
2023-05-18T10:53:22.588Z,594.70001
2023-05-18T10:54:32.404Z,469
2023-05-18T10:55:41.009Z,278.5
2023-05-18T10:56:50.642Z,79.5
2023-05-18T10:58:00.292Z,211.69999
2023-05-18T10:59:07.955Z,42.700001
2023-05-18T11:00:17.587Z,3.6
2023-05-18T11:01:26.257Z,2.5
2023-05-18T11:02:33.916Z,919.90002
2023-05-18T11:03:43.557Z,377.70001
2023-05-18T11:04:54.079Z,646.09997
2023-05-18T11:06:01.944Z,334.6
2023-05-18T11:07:11.642Z,24.700001
2023-05-18T11:08:20.365Z,102.09999
2023-05-18T11:09:30.021Z,230.69999
2023-05-18T11:10:38.919Z,151.8
2023-05-18T11:11:47.486Z,304.79998
2023-05-18T11:12:57.144Z,269.89999
2023-05-18T11:14:05.809Z,8.5
2023-05-18T11:15:14.443Z,49
2023-05-18T11:16:23.206Z,3.9
2023-05-18T11:17:32.918Z,2.7
2023-05-18T11:18:42.558Z,7.2
2023-05-18T11:19:52.182Z,34.5
2023-05-18T11:21:00.824Z,33.400002
2023-05-18T11:22:10.496Z,5.2
2023-05-18T11:23:20.152Z,1.9
2023-05-18T11:24:29.821Z,4.7
2023-05-18T11:25:39.505Z,2.4
2023-05-18T11:26:49.250Z,2.8
2023-05-18T11:27:58.877Z,4.7
2023-05-18T11:29:07.583Z,5.8
2023-05-18T11:30:17.282Z,3.4
2023-05-18T11:31:25.998Z,2.2
2023-05-18T11:32:35.703Z,3.3
2023-05-18T11:33:45.276Z,2.7
2023-05-18T11:34:54.929Z,2.9
2023-05-18T11:36:02.594Z,3.8
2023-05-18T11:37:12.241Z,2.2
2023-05-18T11:38:20.885Z,4.2
2023-05-18T11:39:28.519Z,2.9
2023-05-18T11:40:38.239Z,12.4
2023-05-18T11:41:47.001Z,6.3
2023-05-18T11:42:56.692Z,15.8
2023-05-18T11:44:06.294Z,3.1
2023-05-18T11:45:13.930Z,4.4
2023-05-18T11:46:23.757Z,3.8
2023-05-18T11:47:32.462Z,13.5
2023-05-18T11:48:40.163Z,4.2
2023-05-18T11:49:49.747Z,3.9
2023-05-18T11:50:58.463Z,2.4
2023-05-18T11:52:07.140Z,3.6
2023-05-18T11:53:17.783Z,2
2023-05-18T11:54:26.502Z,3.5
2023-05-18T11:55:36.171Z,1.8
2023-05-18T11:56:44.913Z,2.1
2023-05-18T11:57:53.595Z,2.7
2023-05-18T11:59:03.297Z,1.5
2023-05-18T12:00:12.051Z,1.3
2023-05-18T12:01:20.618Z,2.9
2023-05-18T12:02:29.336Z,1.9
2023-05-18T12:03:37.992Z,1.5
2023-05-18T12:04:47.757Z,9.6
2023-05-18T12:05:56.330Z,8.6
2023-05-18T12:07:03.994Z,4.1
2023-05-18T12:08:13.638Z,3.3
2023-05-18T12:09:22.302Z,4.1
2023-05-18T12:10:31.196Z,1.8
2023-05-18T12:11:39.638Z,3.7
2023-05-18T12:12:48.282Z,1.9
2023-05-18T12:13:57.960Z,4.8
2023-05-18T12:15:06.685Z,1.8
2023-05-18T12:16:14.346Z,2.6
2023-05-18T12:17:22.937Z,1.7
2023-05-18T12:18:31.599Z,6.1
2023-05-18T12:19:41.261Z,4.6
2023-05-18T12:20:50.921Z,2.2
2023-05-18T12:21:59.560Z,56.400002
2023-05-18T12:23:09.417Z,24.5
2023-05-18T12:24:18.105Z,1
2023-05-18T12:25:27.813Z,3
2023-05-18T12:26:37.446Z,1.4
2023-05-18T12:27:47.099Z,2.7
2023-05-18T12:28:56.792Z,1.9
2023-05-18T12:30:06.502Z,3.1
2023-05-18T12:31:15.198Z,1.8
2023-05-18T12:32:23.847Z,2.6
2023-05-18T12:33:32.530Z,1.2
2023-05-18T12:34:42.221Z,5.2
2023-05-18T12:35:51.876Z,1.9
2023-05-18T12:37:00.527Z,3.3
2023-05-18T12:38:09.210Z,4.4
2023-05-18T12:39:17.882Z,5.2
2023-05-18T12:40:26.525Z,2.2
2023-05-18T12:41:35.177Z,3
2023-05-18T12:42:42.836Z,3.8
2023-05-18T12:43:52.488Z,5.1
2023-05-18T12:45:02.808Z,0.8
2023-05-18T12:46:10.831Z,3.3
2023-05-18T12:47:20.504Z,3.6
2023-05-18T12:48:29.119Z,4.3
2023-05-18T12:49:37.797Z,4.5
2023-05-18T12:50:47.507Z,3.9
2023-05-18T12:51:55.107Z,1.7
2023-05-18T12:53:04.771Z,5.3
2023-05-18T12:54:13.415Z,1.6
2023-05-18T12:55:21.066Z,4.5
2023-05-18T12:56:29.771Z,3.6
2023-05-18T12:57:38.424Z,4.9
2023-05-18T12:58:48.098Z,1.6
2023-05-18T12:59:57.769Z,2.9
2023-05-18T13:01:06.427Z,2
2023-05-18T13:02:16.064Z,5
2023-05-18T13:03:24.901Z,3.5
2023-05-18T13:04:32.370Z,4.2
2023-05-18T13:05:42.043Z,3.4
2023-05-18T13:06:49.686Z,3.8
2023-05-18T13:07:58.357Z,5.4
2023-05-18T13:09:08.882Z,3
2023-05-18T13:10:16.652Z,1.9
2023-05-18T13:11:26.326Z,2.9
2023-05-18T13:12:34.988Z,1.7
2023-05-18T13:13:43.640Z,205.1
2023-05-18T13:14:53.360Z,8.3
2023-05-18T13:16:02.113Z,84.599998
2023-05-18T13:17:11.763Z,299.5
2023-05-18T13:18:20.393Z,4.3
2023-05-18T13:19:29.093Z,182.6
2023-05-18T13:20:39.698Z,194.69999
2023-05-18T13:21:48.337Z,338.5
2023-05-18T13:22:57.979Z,5.4
2023-05-18T13:24:07.716Z,3.4
2023-05-18T13:25:17.416Z,136.8
2023-05-18T13:26:27.066Z,3.7
2023-05-18T13:27:35.701Z,215.1
2023-05-18T13:28:43.353Z,1.7
2023-05-18T13:29:53.170Z,3.5
2023-05-18T13:31:02.883Z,43.400002
2023-05-18T13:32:11.496Z,498.20001
2023-05-18T13:33:21.170Z,506.20001
2023-05-18T13:34:29.841Z,559.40002
2023-05-18T13:35:39.534Z,89.900002
2023-05-18T13:36:49.171Z,436.20001
2023-05-18T13:37:56.821Z,25
2023-05-18T13:39:06.522Z,72.400002
2023-05-18T13:40:16.164Z,305.6
2023-05-18T13:41:23.837Z,214.19999
2023-05-18T13:42:33.509Z,195.19999
2023-05-18T13:43:43.186Z,7.4
2023-05-18T13:44:51.825Z,107.3
2023-05-18T13:46:01.495Z,205.1
2023-05-18T13:47:09.097Z,93.800003
2023-05-18T13:48:18.798Z,134.69999
2023-05-18T13:49:27.408Z,42
2023-05-18T13:50:35.130Z,155.1
2023-05-18T13:51:44.756Z,4.5
2023-05-18T13:52:54.419Z,50.799999
2023-05-18T13:54:03.101Z,25.4
2023-05-18T13:55:12.529Z,3.4
2023-05-18T13:56:19.407Z,1.4
2023-05-18T13:57:29.156Z,3
2023-05-18T13:58:37.893Z,1
2023-05-18T13:59:45.531Z,3
2023-05-18T14:00:54.296Z,2.6
2023-05-18T14:02:02.947Z,2.5
2023-05-18T14:03:11.701Z,2.8
2023-05-18T14:04:21.250Z,3.4
2023-05-18T14:05:29.906Z,2.2
2023-05-18T14:06:40.773Z,4.4
2023-05-18T14:07:49.263Z,1
2023-05-18T14:08:56.866Z,7.7
2023-05-18T14:10:06.670Z,46.5
2023-05-18T14:11:15.276Z,55.400002
2023-05-18T14:12:24.971Z,5.3
2023-05-18T14:13:34.634Z,7.4
2023-05-18T14:14:42.266Z,7.4
2023-05-18T14:15:51.943Z,2.8
2023-05-18T14:17:01.649Z,5
2023-05-18T14:18:10.304Z,0.8
2023-05-18T14:19:19.902Z,3
2023-05-18T14:20:28.659Z,3.6
2023-05-18T14:21:38.194Z,5
2023-05-18T14:22:46.841Z,1.1
2023-05-18T14:23:56.516Z,2.7
2023-05-18T14:25:06.194Z,1.4
2023-05-18T14:26:14.874Z,1.4
2023-05-18T14:27:23.542Z,2.1
2023-05-18T14:28:33.173Z,2.7
2023-05-18T14:29:42.837Z,2.9
2023-05-18T14:30:51.571Z,2.8
2023-05-18T14:32:01.130Z,3.5
2023-05-18T14:33:08.837Z,2.4
2023-05-18T14:34:18.429Z,3.6
2023-05-18T14:35:27.104Z,11.8
2023-05-18T14:36:34.751Z,37.5
2023-05-18T14:37:44.402Z,5
2023-05-18T14:38:52.047Z,2.7
2023-05-18T14:40:00.729Z,1.4
2023-05-18T14:41:09.330Z,2.2
2023-05-18T14:42:18.018Z,4.1
2023-05-18T14:43:27.696Z,2
2023-05-18T14:44:37.366Z,4.2
2023-05-18T14:45:53.520Z,1.7
2023-05-18T14:46:56.690Z,1.8
2023-05-18T14:48:05.368Z,1.6
2023-05-18T14:49:15.060Z,4.3
2023-05-18T14:50:23.732Z,162.69999
2023-05-18T14:51:32.442Z,6.3
2023-05-18T14:52:41.073Z,337.20001
2023-05-18T14:53:50.766Z,155.1
2023-05-18T14:55:00.447Z,193.89999
2023-05-18T14:56:10.161Z,703.40002
2023-05-18T14:57:18.824Z,875.70001
2023-05-18T14:58:28.493Z,664.70001
2023-05-18T14:59:37.160Z,453.79998
2023-05-18T15:00:45.812Z,1105.5999
2023-05-18T15:01:55.535Z,1059.5
2023-05-18T15:03:05.206Z,963.20001
2023-05-18T15:04:14.944Z,1070.6999
2023-05-18T15:05:23.547Z,1094.8
2023-05-18T15:06:32.204Z,4.6
2023-05-18T15:07:41.871Z,161.69999
2023-05-18T15:08:51.590Z,261.20001
2023-05-18T15:10:01.260Z,188.69999
2023-05-18T15:11:09.906Z,107.69999
2023-05-18T15:12:18.717Z,7.5
2023-05-18T15:13:28.282Z,28.299999
2023-05-18T15:14:37.965Z,3
2023-05-18T15:15:46.686Z,1.6
2023-05-18T15:16:56.245Z,4.2
2023-05-18T15:18:04.945Z,1.6
2023-05-18T15:19:14.612Z,4.8
2023-05-18T15:20:23.308Z,128.5
2023-05-18T15:21:30.970Z,27
2023-05-18T15:22:40.877Z,10.9
2023-05-18T15:23:49.578Z,9.8
2023-05-18T15:24:58.243Z,6.2
2023-05-18T15:26:09.186Z,3.5
2023-05-18T15:27:16.559Z,2.9
2023-05-18T15:28:25.221Z,6.9
2023-05-18T15:29:34.891Z,282.79998
2023-05-18T15:30:42.532Z,230.8